MLBA4: Mulberry River at Mulberry, AR

                                SHEF ID:       MLBA4     Mulberry River near Mulberry. AR
STATION TYPE: Stream Gauge

PRECIP STAGE RIV-FLOW BAT-LOAD
in ft cfs volt
Ccp-Rev Ccp-Rev Ccp-Rev Ccp-Rev
(America/Chicago)
06/25 00:00 0.00 3.76 1628 13.44
06/25 01:00 0.00 3.79 1649 13.45
06/25 02:00 0.00 3.88 1715 13.45
06/25 03:00 0.00 3.85 1693 13.45
06/25 04:00 0.00 3.92 1744 13.45
06/25 05:00 0.00 3.93 1751 13.45
06/25 06:00 0.00 3.88 1715 13.42
06/25 07:00 0.00 3.83 1678 13.45
06/25 08:00 0.00 3.81 1664 13.45
06/25 09:00 0.00 3.76 1628 13.45
06/25 10:00 0.00 3.73 1606 13.44
06/25 11:00 0.00 3.72 1599 13.44
06/25 12:00 0.00 3.68 1572 13.42
06/25 13:00 0.00 3.66 1558 13.42
06/25 14:00 0.00 3.65 1551 13.41
06/25 15:00 0.00 3.58 1504 13.40
06/25 16:00 0.00 3.58 1504 13.39
06/25 17:00 0.00 3.54 1477 13.39
06/25 18:00 0.00 3.58 1504 13.38
06/25 19:00 0.00 3.62 1531 13.39
06/25 20:00 0.00 3.62 1531 13.39
06/25 21:00 0.00 3.60 1518 13.39
06/25 22:00 0.01 3.56 1491 13.41
06/25 23:00 0.00 3.55 1484 13.40
Data processed at Fri 26Jun2026 04:40 GMT

NOTICE: If you are parsing this page

Please convert to using our Data API. Starting early 2026 we will be migrating to: https://water.usace.army.mil with modern pages rendered in JavaScript. When this migration completes you will no longer be able to scrape this page! CWMSDataAPI (CDA)

Timeseries IDs (TSIDs)

TSIDs used from left to right in the data table
MULB.Precip-Inc.Total.1Hour.1Hour.Ccp-Rev
MULB.Stage.Inst.1Hour.0.Ccp-Rev
MULB.Flow.Inst.1Hour.0.Ccp-Rev
MULB.Volt-Battery Load.Inst.1Hour.0.Ccp-Rev

                            

All information presented herein is the property of the government of the United States of America and may be revised or deleted at any time without prior notice. Dissemination of this information without the expressed written consent of the Public Affairs Office, Tulsa District U.S. Army Corps of Engineers is strictly prohibited. These data are gathered electronically and, as presented, have NOT undergone any form of quality control. These data are NOT guaranteed to be valid or correct.